sensor_id;sensor_type;location;lat;lon;timestamp;temperature;humidity
69418;DHT22;56610;48.872;2.400;2023-07-13T00:01:44;22.50;95.70
69418;DHT22;56610;48.872;2.400;2023-07-13T00:04:11;22.40;95.60
69418;DHT22;56610;48.872;2.400;2023-07-13T00:06:37;22.40;95.70
69418;DHT22;56610;48.872;2.400;2023-07-13T00:09:03;22.40;95.70
69418;DHT22;56610;48.872;2.400;2023-07-13T00:11:28;22.40;95.80
69418;DHT22;56610;48.872;2.400;2023-07-13T00:13:54;22.30;96.10
69418;DHT22;56610;48.872;2.400;2023-07-13T00:16:19;22.30;96.10
69418;DHT22;56610;48.872;2.400;2023-07-13T00:18:46;22.30;96.20
69418;DHT22;56610;48.872;2.400;2023-07-13T00:21:12;22.20;96.30
69418;DHT22;56610;48.872;2.400;2023-07-13T00:23:39;22.10;96.60
69418;DHT22;56610;48.872;2.400;2023-07-13T00:26:09;22.00;96.70
69418;DHT22;56610;48.872;2.400;2023-07-13T00:28:35;22.00;97.00
69418;DHT22;56610;48.872;2.400;2023-07-13T00:31:01;22.00;97.10
69418;DHT22;56610;48.872;2.400;2023-07-13T00:33:28;22.10;97.00
69418;DHT22;56610;48.872;2.400;2023-07-13T00:35:55;22.10;97.20
69418;DHT22;56610;48.872;2.400;2023-07-13T00:38:21;22.10;97.10
69418;DHT22;56610;48.872;2.400;2023-07-13T00:40:48;22.20;97.20
69418;DHT22;56610;48.872;2.400;2023-07-13T00:43:16;22.30;97.20
69418;DHT22;56610;48.872;2.400;2023-07-13T00:48:08;22.10;97.60
69418;DHT22;56610;48.872;2.400;2023-07-13T00:50:34;22.10;97.80
69418;DHT22;56610;48.872;2.400;2023-07-13T00:53:00;22.00;97.90
69418;DHT22;56610;48.872;2.400;2023-07-13T00:55:25;22.00;98.10
69418;DHT22;56610;48.872;2.400;2023-07-13T00:57:51;21.90;98.40
69418;DHT22;56610;48.872;2.400;2023-07-13T01:00:19;21.90;98.50
69418;DHT22;56610;48.872;2.400;2023-07-13T01:02:46;21.80;98.80
69418;DHT22;56610;48.872;2.400;2023-07-13T01:05:18;21.90;99.00
69418;DHT22;56610;48.872;2.400;2023-07-13T01:07:45;21.90;98.90
69418;DHT22;56610;48.872;2.400;2023-07-13T01:10:12;22.00;99.00
69418;DHT22;56610;48.872;2.400;2023-07-13T01:12:38;22.10;98.90
69418;DHT22;56610;48.872;2.400;2023-07-13T01:15:05;22.20;98.90
69418;DHT22;56610;48.872;2.400;2023-07-13T01:17:34;22.10;98.70
69418;DHT22;56610;48.872;2.400;2023-07-13T01:20:00;22.00;99.10
69418;DHT22;56610;48.872;2.400;2023-07-13T01:22:26;22.10;99.10
69418;DHT22;56610;48.872;2.400;2023-07-13T01:24:53;22.00;99.40
69418;DHT22;56610;48.872;2.400;2023-07-13T01:27:24;21.90;99.70
69418;DHT22;56610;48.872;2.400;2023-07-13T01:29:51;22.00;99.90
69418;DHT22;56610;48.872;2.400;2023-07-13T01:32:20;22.10;99.80
69418;DHT22;56610;48.872;2.400;2023-07-13T01:34:47;22.30;99.50
69418;DHT22;56610;48.872;2.400;2023-07-13T01:37:12;22.30;99.50
69418;DHT22;56610;48.872;2.400;2023-07-13T01:39:38;22.10;99.80
69418;DHT22;56610;48.872;2.400;2023-07-13T01:42:04;22.10;99.90
69418;DHT22;56610;48.872;2.400;2023-07-13T01:44:30;22.10;99.90
69418;DHT22;56610;48.872;2.400;2023-07-13T01:46:55;22.00;99.90
69418;DHT22;56610;48.872;2.400;2023-07-13T01:49:21;22.00;99.90
69418;DHT22;56610;48.872;2.400;2023-07-13T01:51:47;21.90;99.90
69418;DHT22;56610;48.872;2.400;2023-07-13T01:54:12;21.90;99.90
69418;DHT22;56610;48.872;2.400;2023-07-13T01:56:38;22.00;99.90
69418;DHT22;56610;48.872;2.400;2023-07-13T01:59:04;22.00;99.80
69418;DHT22;56610;48.872;2.400;2023-07-13T02:01:29;22.10;99.80
69418;DHT22;56610;48.872;2.400;2023-07-13T02:03:55;21.90;99.90
69418;DHT22;56610;48.872;2.400;2023-07-13T02:06:20;21.80;99.90
69418;DHT22;56610;48.872;2.400;2023-07-13T02:08:46;21.80;99.90
69418;DHT22;56610;48.872;2.400;2023-07-13T02:11:12;21.70;99.50
69418;DHT22;56610;48.872;2.400;2023-07-13T02:13:38;21.80;99.60
69418;DHT22;56610;48.872;2.400;2023-07-13T02:16:03;21.80;99.00
69418;DHT22;56610;48.872;2.400;2023-07-13T02:18:29;21.80;98.70
69418;DHT22;56610;48.872;2.400;2023-07-13T02:20:54;21.90;98.70
69418;DHT22;56610;48.872;2.400;2023-07-13T02:23:20;21.80;98.20
69418;DHT22;56610;48.872;2.400;2023-07-13T02:25:45;21.80;98.20
69418;DHT22;56610;48.872;2.400;2023-07-13T02:28:11;21.60;98.30
69418;DHT22;56610;48.872;2.400;2023-07-13T02:30:37;21.60;98.40
69418;DHT22;56610;48.872;2.400;2023-07-13T02:33:04;21.50;98.80
69418;DHT22;56610;48.872;2.400;2023-07-13T02:35:30;21.40;99.10
69418;DHT22;56610;48.872;2.400;2023-07-13T02:37:56;21.50;99.10
69418;DHT22;56610;48.872;2.400;2023-07-13T02:40:21;21.40;99.30
69418;DHT22;56610;48.872;2.400;2023-07-13T02:42:47;21.40;99.50
69418;DHT22;56610;48.872;2.400;2023-07-13T02:45:12;21.30;99.80
69418;DHT22;56610;48.872;2.400;2023-07-13T02:47:41;21.30;99.90
69418;DHT22;56610;48.872;2.400;2023-07-13T02:50:07;21.40;99.80
69418;DHT22;56610;48.872;2.400;2023-07-13T02:52:32;21.50;99.70
69418;DHT22;56610;48.872;2.400;2023-07-13T02:54:58;21.50;99.60
69418;DHT22;56610;48.872;2.400;2023-07-13T02:57:23;21.60;99.50
69418;DHT22;56610;48.872;2.400;2023-07-13T02:59:49;21.70;99.40
69418;DHT22;56610;48.872;2.400;2023-07-13T03:02:15;21.50;99.40
69418;DHT22;56610;48.872;2.400;2023-07-13T03:04:41;21.50;99.60
69418;DHT22;56610;48.872;2.400;2023-07-13T03:07:07;21.50;99.50
69418;DHT22;56610;48.872;2.400;2023-07-13T03:09:34;21.40;99.30
69418;DHT22;56610;48.872;2.400;2023-07-13T03:12:00;21.30;99.50
69418;DHT22;56610;48.872;2.400;2023-07-13T03:14:26;21.20;99.90
69418;DHT22;56610;48.872;2.400;2023-07-13T03:16:52;21.20;99.90
69418;DHT22;56610;48.872;2.400;2023-07-13T03:19:18;21.20;99.80
69418;DHT22;56610;48.872;2.400;2023-07-13T03:21:44;21.20;99.90
69418;DHT22;56610;48.872;2.400;2023-07-13T03:24:10;21.20;99.90
69418;DHT22;56610;48.872;2.400;2023-07-13T03:26:35;21.20;99.90
69418;DHT22;56610;48.872;2.400;2023-07-13T03:29:01;21.20;99.90
69418;DHT22;56610;48.872;2.400;2023-07-13T03:31:29;21.20;99.90
69418;DHT22;56610;48.872;2.400;2023-07-13T03:33:56;21.40;99.90
69418;DHT22;56610;48.872;2.400;2023-07-13T03:36:25;21.50;99.90
69418;DHT22;56610;48.872;2.400;2023-07-13T03:38:58;21.50;99.90
69418;DHT22;56610;48.872;2.400;2023-07-13T03:41:25;21.70;99.70
69418;DHT22;56610;48.872;2.400;2023-07-13T03:43:51;21.80;99.70
69418;DHT22;56610;48.872;2.400;2023-07-13T03:46:18;21.90;99.60
69418;DHT22;56610;48.872;2.400;2023-07-13T03:48:45;21.90;99.50
69418;DHT22;56610;48.872;2.400;2023-07-13T03:51:14;21.90;99.60
69418;DHT22;56610;48.872;2.400;2023-07-13T03:53:43;21.90;99.60
69418;DHT22;56610;48.872;2.400;2023-07-13T03:56:09;21.80;99.90
69418;DHT22;56610;48.872;2.400;2023-07-13T03:58:37;21.80;99.90
69418;DHT22;56610;48.872;2.400;2023-07-13T04:01:05;21.90;99.90
69418;DHT22;56610;48.872;2.400;2023-07-13T04:03:31;22.00;99.90
69418;DHT22;56610;48.872;2.400;2023-07-13T04:05:59;22.00;99.80
69418;DHT22;56610;48.872;2.400;2023-07-13T04:08:27;22.00;99.90
69418;DHT22;56610;48.872;2.400;2023-07-13T04:10:52;21.80;99.90
69418;DHT22;56610;48.872;2.400;2023-07-13T04:13:18;21.80;99.90
69418;DHT22;56610;48.872;2.400;2023-07-13T04:15:43;21.80;99.90
69418;DHT22;56610;48.872;2.400;2023-07-13T04:18:09;21.80;99.90
69418;DHT22;56610;48.872;2.400;2023-07-13T04:20:35;21.80;99.90
69418;DHT22;56610;48.872;2.400;2023-07-13T04:23:00;21.60;99.90
69418;DHT22;56610;48.872;2.400;2023-07-13T04:25:26;21.70;99.90
69418;DHT22;56610;48.872;2.400;2023-07-13T04:27:53;21.80;99.90
69418;DHT22;56610;48.872;2.400;2023-07-13T04:30:19;21.70;99.90
69418;DHT22;56610;48.872;2.400;2023-07-13T04:32:44;21.70;99.90
69418;DHT22;56610;48.872;2.400;2023-07-13T04:35:10;21.70;99.90
69418;DHT22;56610;48.872;2.400;2023-07-13T04:37:35;21.60;99.90
69418;DHT22;56610;48.872;2.400;2023-07-13T04:40:02;21.50;99.90
69418;DHT22;56610;48.872;2.400;2023-07-13T04:42:29;21.70;99.90
69418;DHT22;56610;48.872;2.400;2023-07-13T04:44:55;21.70;99.90
69418;DHT22;56610;48.872;2.400;2023-07-13T04:47:21;21.50;99.90
69418;DHT22;56610;48.872;2.400;2023-07-13T04:49:46;21.50;99.90
69418;DHT22;56610;48.872;2.400;2023-07-13T04:52:12;21.40;99.90
69418;DHT22;56610;48.872;2.400;2023-07-13T04:54:40;21.50;99.90
69418;DHT22;56610;48.872;2.400;2023-07-13T04:57:06;21.60;99.90
69418;DHT22;56610;48.872;2.400;2023-07-13T04:59:32;21.60;99.90
69418;DHT22;56610;48.872;2.400;2023-07-13T05:01:58;21.80;99.90
69418;DHT22;56610;48.872;2.400;2023-07-13T05:04:24;21.80;99.90
69418;DHT22;56610;48.872;2.400;2023-07-13T05:06:50;21.80;99.90
69418;DHT22;56610;48.872;2.400;2023-07-13T05:09:16;21.80;99.90
69418;DHT22;56610;48.872;2.400;2023-07-13T05:11:42;21.90;99.90
69418;DHT22;56610;48.872;2.400;2023-07-13T05:14:08;22.00;99.90
69418;DHT22;56610;48.872;2.400;2023-07-13T05:16:37;22.00;99.90
69418;DHT22;56610;48.872;2.400;2023-07-13T05:19:03;22.00;99.90
69418;DHT22;56610;48.872;2.400;2023-07-13T05:21:28;21.90;99.90
69418;DHT22;56610;48.872;2.400;2023-07-13T05:23:54;21.90;99.90
69418;DHT22;56610;48.872;2.400;2023-07-13T05:26:20;22.00;99.90
69418;DHT22;56610;48.872;2.400;2023-07-13T05:28:46;21.90;99.90
69418;DHT22;56610;48.872;2.400;2023-07-13T05:31:12;21.80;99.90
69418;DHT22;56610;48.872;2.400;2023-07-13T05:33:37;21.70;99.90
69418;DHT22;56610;48.872;2.400;2023-07-13T05:36:03;21.60;99.90
69418;DHT22;56610;48.872;2.400;2023-07-13T05:38:29;21.40;99.90
69418;DHT22;56610;48.872;2.400;2023-07-13T05:40:56;21.30;99.90
69418;DHT22;56610;48.872;2.400;2023-07-13T05:43:22;21.30;99.90
69418;DHT22;56610;48.872;2.400;2023-07-13T05:45:48;21.30;99.90
69418;DHT22;56610;48.872;2.400;2023-07-13T05:48:15;21.30;99.90
69418;DHT22;56610;48.872;2.400;2023-07-13T05:50:41;21.30;99.90
69418;DHT22;56610;48.872;2.400;2023-07-13T05:53:06;21.30;99.90
69418;DHT22;56610;48.872;2.400;2023-07-13T05:55:32;21.20;99.90
69418;DHT22;56610;48.872;2.400;2023-07-13T05:57:58;21.40;99.90
69418;DHT22;56610;48.872;2.400;2023-07-13T06:00:24;21.40;99.90
69418;DHT22;56610;48.872;2.400;2023-07-13T06:02:50;21.50;99.90
69418;DHT22;56610;48.872;2.400;2023-07-13T06:05:16;21.60;99.90
69418;DHT22;56610;48.872;2.400;2023-07-13T06:07:42;21.60;99.90
69418;DHT22;56610;48.872;2.400;2023-07-13T06:10:08;21.60;99.90
69418;DHT22;56610;48.872;2.400;2023-07-13T06:12:33;21.60;99.90
69418;DHT22;56610;48.872;2.400;2023-07-13T06:14:59;21.60;99.90
69418;DHT22;56610;48.872;2.400;2023-07-13T06:17:25;21.70;99.90
69418;DHT22;56610;48.872;2.400;2023-07-13T06:19:50;21.70;99.90
69418;DHT22;56610;48.872;2.400;2023-07-13T06:22:16;21.80;99.90
69418;DHT22;56610;48.872;2.400;2023-07-13T06:24:41;21.90;99.90
69418;DHT22;56610;48.872;2.400;2023-07-13T06:27:07;21.90;99.90
69418;DHT22;56610;48.872;2.400;2023-07-13T06:29:33;22.10;99.90
69418;DHT22;56610;48.872;2.400;2023-07-13T06:31:58;22.10;99.90
69418;DHT22;56610;48.872;2.400;2023-07-13T06:34:24;22.10;99.90
69418;DHT22;56610;48.872;2.400;2023-07-13T06:36:49;22.20;99.90
69418;DHT22;56610;48.872;2.400;2023-07-13T06:39:15;22.10;99.90
69418;DHT22;56610;48.872;2.400;2023-07-13T06:41:41;22.20;99.90
69418;DHT22;56610;48.872;2.400;2023-07-13T06:44:06;22.20;99.90
69418;DHT22;56610;48.872;2.400;2023-07-13T06:46:32;22.30;99.90
69418;DHT22;56610;48.872;2.400;2023-07-13T06:48:58;22.30;99.90
69418;DHT22;56610;48.872;2.400;2023-07-13T06:51:24;22.30;99.90
69418;DHT22;56610;48.872;2.400;2023-07-13T06:53:54;22.20;99.90
69418;DHT22;56610;48.872;2.400;2023-07-13T06:56:21;22.00;99.90
69418;DHT22;56610;48.872;2.400;2023-07-13T06:58:47;21.90;99.90
69418;DHT22;56610;48.872;2.400;2023-07-13T07:01:12;22.00;99.90
69418;DHT22;56610;48.872;2.400;2023-07-13T07:03:38;22.00;99.90
69418;DHT22;56610;48.872;2.400;2023-07-13T07:08:38;22.00;99.90
69418;DHT22;56610;48.872;2.400;2023-07-13T07:11:03;22.10;99.90
69418;DHT22;56610;48.872;2.400;2023-07-13T07:13:29;22.20;99.90
69418;DHT22;56610;48.872;2.400;2023-07-13T07:15:55;22.10;99.90
69418;DHT22;56610;48.872;2.400;2023-07-13T07:18:21;22.00;99.90
69418;DHT22;56610;48.872;2.400;2023-07-13T07:20:46;22.00;99.90
69418;DHT22;56610;48.872;2.400;2023-07-13T07:23:13;22.00;99.90
69418;DHT22;56610;48.872;2.400;2023-07-13T07:25:40;22.00;99.90
69418;DHT22;56610;48.872;2.400;2023-07-13T07:28:08;21.70;99.90
69418;DHT22;56610;48.872;2.400;2023-07-13T07:30:33;21.60;99.90
69418;DHT22;56610;48.872;2.400;2023-07-13T07:32:59;21.60;99.90
69418;DHT22;56610;48.872;2.400;2023-07-13T07:35:24;21.40;99.90
69418;DHT22;56610;48.872;2.400;2023-07-13T07:37:50;21.50;99.90
69418;DHT22;56610;48.872;2.400;2023-07-13T07:40:16;21.60;99.90
69418;DHT22;56610;48.872;2.400;2023-07-13T07:42:41;21.50;99.90
69418;DHT22;56610;48.872;2.400;2023-07-13T07:45:07;21.40;99.90
69418;DHT22;56610;48.872;2.400;2023-07-13T07:47:33;21.40;99.90
69418;DHT22;56610;48.872;2.400;2023-07-13T07:49:58;21.50;99.90
69418;DHT22;56610;48.872;2.400;2023-07-13T07:52:24;21.80;99.90
69418;DHT22;56610;48.872;2.400;2023-07-13T07:54:49;21.90;99.90
69418;DHT22;56610;48.872;2.400;2023-07-13T07:57:15;22.10;99.90
69418;DHT22;56610;48.872;2.400;2023-07-13T07:59:41;22.20;99.90
69418;DHT22;56610;48.872;2.400;2023-07-13T08:02:08;22.30;99.90
69418;DHT22;56610;48.872;2.400;2023-07-13T08:04:34;22.40;99.90
69418;DHT22;56610;48.872;2.400;2023-07-13T08:06:59;22.40;99.90
69418;DHT22;56610;48.872;2.400;2023-07-13T08:09:28;22.50;99.90
69418;DHT22;56610;48.872;2.400;2023-07-13T08:11:53;22.60;99.90
69418;DHT22;56610;48.872;2.400;2023-07-13T08:14:20;22.70;99.90
69418;DHT22;56610;48.872;2.400;2023-07-13T08:16:45;22.90;99.90
69418;DHT22;56610;48.872;2.400;2023-07-13T08:19:11;22.90;99.90
69418;DHT22;56610;48.872;2.400;2023-07-13T08:21:37;22.80;99.90
69418;DHT22;56610;48.872;2.400;2023-07-13T08:24:03;22.80;99.90
69418;DHT22;56610;48.872;2.400;2023-07-13T08:26:29;22.80;99.90
69418;DHT22;56610;48.872;2.400;2023-07-13T08:28:54;22.90;99.90
69418;DHT22;56610;48.872;2.400;2023-07-13T08:31:20;22.80;99.90
69418;DHT22;56610;48.872;2.400;2023-07-13T08:33:45;22.90;99.90
69418;DHT22;56610;48.872;2.400;2023-07-13T08:36:11;22.90;99.90
69418;DHT22;56610;48.872;2.400;2023-07-13T08:38:37;23.20;99.90
69418;DHT22;56610;48.872;2.400;2023-07-13T08:41:13;23.20;99.90
69418;DHT22;56610;48.872;2.400;2023-07-13T08:43:40;23.00;99.90
69418;DHT22;56610;48.872;2.400;2023-07-13T08:46:32;23.00;99.90
69418;DHT22;56610;48.872;2.400;2023-07-13T08:49:13;23.00;99.90
69418;DHT22;56610;48.872;2.400;2023-07-13T08:54:19;23.20;99.90
69418;DHT22;56610;48.872;2.400;2023-07-13T08:56:46;23.40;99.90
69418;DHT22;56610;48.872;2.400;2023-07-13T08:59:16;23.40;99.90
69418;DHT22;56610;48.872;2.400;2023-07-13T09:04:45;23.70;99.90
69418;DHT22;56610;48.872;2.400;2023-07-13T09:10:13;23.90;99.90
69418;DHT22;56610;48.872;2.400;2023-07-13T09:13:07;23.80;99.90
69418;DHT22;56610;48.872;2.400;2023-07-13T09:15:41;23.70;99.90
69418;DHT22;56610;48.872;2.400;2023-07-13T09:18:22;23.70;99.90
69418;DHT22;56610;48.872;2.400;2023-07-13T09:20:53;23.50;99.90
69418;DHT22;56610;48.872;2.400;2023-07-13T09:23:22;23.50;99.90
69418;DHT22;56610;48.872;2.400;2023-07-13T09:25:51;23.50;99.90
69418;DHT22;56610;48.872;2.400;2023-07-13T09:28:27;23.60;99.90
69418;DHT22;56610;48.872;2.400;2023-07-13T09:33:53;23.80;99.90
69418;DHT22;56610;48.872;2.400;2023-07-13T09:36:26;24.00;99.90
69418;DHT22;56610;48.872;2.400;2023-07-13T09:39:19;23.90;99.90
69418;DHT22;56610;48.872;2.400;2023-07-13T09:41:51;24.00;99.60
69418;DHT22;56610;48.872;2.400;2023-07-13T09:44:42;23.90;98.00
69418;DHT22;56610;48.872;2.400;2023-07-13T09:47:29;23.90;98.00
69418;DHT22;56610;48.872;2.400;2023-07-13T09:50:01;23.90;98.00
69418;DHT22;56610;48.872;2.400;2023-07-13T09:52:28;24.10;97.70
69418;DHT22;56610;48.872;2.400;2023-07-13T09:55:04;24.00;97.80
69418;DHT22;56610;48.872;2.400;2023-07-13T09:57:30;24.10;98.30
69418;DHT22;56610;48.872;2.400;2023-07-13T09:59:56;24.10;99.80
69418;DHT22;56610;48.872;2.400;2023-07-13T10:02:35;24.00;99.90
69418;DHT22;56610;48.872;2.400;2023-07-13T10:05:11;23.80;99.90
69418;DHT22;56610;48.872;2.400;2023-07-13T10:07:43;23.80;99.90
69418;DHT22;56610;48.872;2.400;2023-07-13T10:10:27;23.80;99.90
69418;DHT22;56610;48.872;2.400;2023-07-13T10:12:53;23.80;99.90
69418;DHT22;56610;48.872;2.400;2023-07-13T10:15:24;23.80;99.10
69418;DHT22;56610;48.872;2.400;2023-07-13T10:17:54;23.90;99.50
69418;DHT22;56610;48.872;2.400;2023-07-13T10:20:21;24.00;98.60
69418;DHT22;56610;48.872;2.400;2023-07-13T10:23:05;24.00;98.30
69418;DHT22;56610;48.872;2.400;2023-07-13T10:25:41;23.90;98.40
69418;DHT22;56610;48.872;2.400;2023-07-13T10:28:19;24.00;98.40
69418;DHT22;56610;48.872;2.400;2023-07-13T10:30:47;24.10;98.30
69418;DHT22;56610;48.872;2.400;2023-07-13T10:33:14;24.10;98.70
69418;DHT22;56610;48.872;2.400;2023-07-13T10:35:43;24.10;98.00
69418;DHT22;56610;48.872;2.400;2023-07-13T10:38:15;24.00;97.60
69418;DHT22;56610;48.872;2.400;2023-07-13T10:41:10;23.90;97.70
69418;DHT22;56610;48.872;2.400;2023-07-13T10:43:43;23.80;98.00
69418;DHT22;56610;48.872;2.400;2023-07-13T10:46:12;24.00;97.90
69418;DHT22;56610;48.872;2.400;2023-07-13T10:48:39;23.90;97.70
69418;DHT22;56610;48.872;2.400;2023-07-13T10:51:06;23.90;97.80
69418;DHT22;56610;48.872;2.400;2023-07-13T10:53:35;23.90;97.30
69418;DHT22;56610;48.872;2.400;2023-07-13T10:56:28;24.00;97.30
69418;DHT22;56610;48.872;2.400;2023-07-13T11:04:22;24.10;97.70
69418;DHT22;56610;48.872;2.400;2023-07-13T11:06:52;24.10;97.90
69418;DHT22;56610;48.872;2.400;2023-07-13T11:09:40;24.00;98.20
69418;DHT22;56610;48.872;2.400;2023-07-13T11:15:01;24.00;98.10
69418;DHT22;56610;48.872;2.400;2023-07-13T11:20:30;24.20;97.70
69418;DHT22;56610;48.872;2.400;2023-07-13T11:23:19;24.10;98.00
69418;DHT22;56610;48.872;2.400;2023-07-13T11:25:45;24.20;98.20
69418;DHT22;56610;48.872;2.400;2023-07-13T11:28:14;24.30;97.80
69418;DHT22;56610;48.872;2.400;2023-07-13T11:30:50;24.40;97.80
69418;DHT22;56610;48.872;2.400;2023-07-13T11:33:29;24.50;97.90
69418;DHT22;56610;48.872;2.400;2023-07-13T11:36:16;24.60;97.60
69418;DHT22;56610;48.872;2.400;2023-07-13T11:39:12;24.70;97.30
69418;DHT22;56610;48.872;2.400;2023-07-13T11:41:52;24.80;97.10
69418;DHT22;56610;48.872;2.400;2023-07-13T11:44:22;24.90;97.50
69418;DHT22;56610;48.872;2.400;2023-07-13T11:46:54;25.00;97.00
69418;DHT22;56610;48.872;2.400;2023-07-13T11:49:23;24.90;97.10
69418;DHT22;56610;48.872;2.400;2023-07-13T11:51:51;25.10;96.80
69418;DHT22;56610;48.872;2.400;2023-07-13T11:54:34;25.10;96.80
69418;DHT22;56610;48.872;2.400;2023-07-13T11:57:33;25.20;96.80
69418;DHT22;56610;48.872;2.400;2023-07-13T12:00:11;25.10;96.10
69418;DHT22;56610;48.872;2.400;2023-07-13T12:02:40;25.20;96.20
69418;DHT22;56610;48.872;2.400;2023-07-13T12:05:10;25.30;95.70
69418;DHT22;56610;48.872;2.400;2023-07-13T12:07:37;25.30;95.50
69418;DHT22;56610;48.872;2.400;2023-07-13T12:10:25;25.40;95.60
69418;DHT22;56610;48.872;2.400;2023-07-13T12:13:01;25.30;95.50
69418;DHT22;56610;48.872;2.400;2023-07-13T12:17:59;25.20;95.50
69418;DHT22;56610;48.872;2.400;2023-07-13T12:20:28;25.20;95.30
69418;DHT22;56610;48.872;2.400;2023-07-13T12:22:55;25.20;95.60
69418;DHT22;56610;48.872;2.400;2023-07-13T12:25:29;25.40;95.40
69418;DHT22;56610;48.872;2.400;2023-07-13T12:27:55;25.60;94.70
69418;DHT22;56610;48.872;2.400;2023-07-13T12:33:00;25.80;93.70
69418;DHT22;56610;48.872;2.400;2023-07-13T12:35:28;25.80;93.30
69418;DHT22;56610;48.872;2.400;2023-07-13T12:37:57;25.90;93.70
69418;DHT22;56610;48.872;2.400;2023-07-13T12:40:31;25.90;92.90
69418;DHT22;56610;48.872;2.400;2023-07-13T12:42:58;25.80;93.30
69418;DHT22;56610;48.872;2.400;2023-07-13T12:45:27;25.80;92.50
69418;DHT22;56610;48.872;2.400;2023-07-13T12:48:19;25.80;92.50
69418;DHT22;56610;48.872;2.400;2023-07-13T12:50:48;25.90;92.10
69418;DHT22;56610;48.872;2.400;2023-07-13T12:53:19;25.80;91.80
69418;DHT22;56610;48.872;2.400;2023-07-13T12:55:52;25.80;91.60
69418;DHT22;56610;48.872;2.400;2023-07-13T12:58:25;25.80;91.90
69418;DHT22;56610;48.872;2.400;2023-07-13T13:00:55;26.00;91.50
69418;DHT22;56610;48.872;2.400;2023-07-13T13:03:28;26.00;90.90
69418;DHT22;56610;48.872;2.400;2023-07-13T13:05:58;26.10;90.40
69418;DHT22;56610;48.872;2.400;2023-07-13T13:08:25;26.30;90.30
69418;DHT22;56610;48.872;2.400;2023-07-13T13:10:50;26.30;86.50
69418;DHT22;56610;48.872;2.400;2023-07-13T13:13:16;26.30;86.60
69418;DHT22;56610;48.872;2.400;2023-07-13T13:15:41;26.30;87.00
69418;DHT22;56610;48.872;2.400;2023-07-13T13:18:18;26.40;86.10
69418;DHT22;56610;48.872;2.400;2023-07-13T13:20:44;26.40;85.50
69418;DHT22;56610;48.872;2.400;2023-07-13T13:23:17;26.30;85.30
69418;DHT22;56610;48.872;2.400;2023-07-13T13:25:44;26.20;85.50
69418;DHT22;56610;48.872;2.400;2023-07-13T13:28:19;26.20;85.50
69418;DHT22;56610;48.872;2.400;2023-07-13T13:30:46;26.20;85.80
69418;DHT22;56610;48.872;2.400;2023-07-13T13:33:15;26.40;86.20
69418;DHT22;56610;48.872;2.400;2023-07-13T13:35:41;26.60;86.30
69418;DHT22;56610;48.872;2.400;2023-07-13T13:38:20;26.70;86.60
69418;DHT22;56610;48.872;2.400;2023-07-13T13:40:46;26.90;85.70
69418;DHT22;56610;48.872;2.400;2023-07-13T13:43:15;27.20;85.10
69418;DHT22;56610;48.872;2.400;2023-07-13T13:45:45;27.30;85.60
69418;DHT22;56610;48.872;2.400;2023-07-13T13:48:17;27.50;84.40
69418;DHT22;56610;48.872;2.400;2023-07-13T13:50:43;27.60;84.10
69418;DHT22;56610;48.872;2.400;2023-07-13T13:53:12;27.60;83.60
69418;DHT22;56610;48.872;2.400;2023-07-13T13:55:39;27.80;84.20
69418;DHT22;56610;48.872;2.400;2023-07-13T13:58:08;27.90;83.60
69418;DHT22;56610;48.872;2.400;2023-07-13T14:00:34;28.00;83.30
69418;DHT22;56610;48.872;2.400;2023-07-13T14:03:00;27.90;83.30
69418;DHT22;56610;48.872;2.400;2023-07-13T14:05:26;27.90;82.70
69418;DHT22;56610;48.872;2.400;2023-07-13T14:07:53;27.80;81.90
69418;DHT22;56610;48.872;2.400;2023-07-13T14:10:19;27.80;82.40
69418;DHT22;56610;48.872;2.400;2023-07-13T14:12:48;27.80;82.80
69418;DHT22;56610;48.872;2.400;2023-07-13T14:15:29;27.80;82.00
69418;DHT22;56610;48.872;2.400;2023-07-13T14:17:59;27.70;82.00
69418;DHT22;56610;48.872;2.400;2023-07-13T14:20:25;27.60;81.80
69418;DHT22;56610;48.872;2.400;2023-07-13T14:22:52;27.60;82.10
69418;DHT22;56610;48.872;2.400;2023-07-13T14:25:19;27.60;82.10
69418;DHT22;56610;48.872;2.400;2023-07-13T14:27:51;27.60;82.30
69418;DHT22;56610;48.872;2.400;2023-07-13T14:30:20;27.60;81.70
69418;DHT22;56610;48.872;2.400;2023-07-13T14:32:46;27.40;81.80
69418;DHT22;56610;48.872;2.400;2023-07-13T14:35:17;27.30;82.70
69418;DHT22;56610;48.872;2.400;2023-07-13T14:37:44;27.30;82.60
69418;DHT22;56610;48.872;2.400;2023-07-13T14:40:24;27.40;82.70
69418;DHT22;56610;48.872;2.400;2023-07-13T14:42:51;27.50;82.80
69418;DHT22;56610;48.872;2.400;2023-07-13T14:45:19;27.30;81.90
69418;DHT22;56610;48.872;2.400;2023-07-13T14:47:46;27.30;82.10
69418;DHT22;56610;48.872;2.400;2023-07-13T14:50:32;27.40;81.70
69418;DHT22;56610;48.872;2.400;2023-07-13T14:52:58;27.40;81.90
69418;DHT22;56610;48.872;2.400;2023-07-13T14:55:24;27.30;81.70
69418;DHT22;56610;48.872;2.400;2023-07-13T14:57:52;27.20;82.00
69418;DHT22;56610;48.872;2.400;2023-07-13T15:00:21;27.20;81.90
69418;DHT22;56610;48.872;2.400;2023-07-13T15:02:51;27.10;83.30
69418;DHT22;56610;48.872;2.400;2023-07-13T15:05:28;26.90;83.10
69418;DHT22;56610;48.872;2.400;2023-07-13T15:07:59;26.70;83.20
69418;DHT22;56610;48.872;2.400;2023-07-13T15:10:27;26.70;83.80
69418;DHT22;56610;48.872;2.400;2023-07-13T15:12:59;26.70;84.00
69418;DHT22;56610;48.872;2.400;2023-07-13T15:15:28;26.60;84.30
69418;DHT22;56610;48.872;2.400;2023-07-13T15:17:54;26.60;84.50
69418;DHT22;56610;48.872;2.400;2023-07-13T15:20:23;26.60;84.10
69418;DHT22;56610;48.872;2.400;2023-07-13T15:22:50;26.70;84.20
69418;DHT22;56610;48.872;2.400;2023-07-13T15:25:21;26.70;85.00
69418;DHT22;56610;48.872;2.400;2023-07-13T15:27:47;26.70;84.10
69418;DHT22;56610;48.872;2.400;2023-07-13T15:30:13;26.80;83.50
69418;DHT22;56610;48.872;2.400;2023-07-13T15:32:41;26.70;83.50
69418;DHT22;56610;48.872;2.400;2023-07-13T15:35:24;26.60;84.80
69418;DHT22;56610;48.872;2.400;2023-07-13T15:37:50;26.70;85.20
69418;DHT22;56610;48.872;2.400;2023-07-13T15:40:16;26.80;84.70
69418;DHT22;56610;48.872;2.400;2023-07-13T15:42:43;26.80;85.10
69418;DHT22;56610;48.872;2.400;2023-07-13T15:45:21;26.90;84.30
69418;DHT22;56610;48.872;2.400;2023-07-13T15:47:48;26.90;84.10
69418;DHT22;56610;48.872;2.400;2023-07-13T15:50:19;26.90;85.00
69418;DHT22;56610;48.872;2.400;2023-07-13T15:52:48;26.90;84.50
69418;DHT22;56610;48.872;2.400;2023-07-13T15:55:15;26.90;83.90
69418;DHT22;56610;48.872;2.400;2023-07-13T15:57:46;26.90;84.60
69418;DHT22;56610;48.872;2.400;2023-07-13T16:00:22;26.80;85.00
69418;DHT22;56610;48.872;2.400;2023-07-13T16:02:49;26.80;84.80
69418;DHT22;56610;48.872;2.400;2023-07-13T16:05:16;26.70;85.50
69418;DHT22;56610;48.872;2.400;2023-07-13T16:07:46;26.60;85.50
69418;DHT22;56610;48.872;2.400;2023-07-13T16:10:17;26.60;85.60
69418;DHT22;56610;48.872;2.400;2023-07-13T16:12:44;26.60;86.20